createdAt,value
2022-09-22T00:01:20.645Z,19.10
2022-09-22T00:04:27.215Z,19.40
2022-09-22T00:07:33.083Z,17.00
2022-09-22T00:10:39.027Z,20.80
2022-09-22T00:13:46.721Z,20.80
2022-09-22T00:16:54.715Z,20.30
2022-09-22T00:20:00.606Z,20.10
2022-09-22T00:23:06.492Z,21.70
2022-09-22T00:26:14.591Z,20.60
2022-09-22T00:29:21.021Z,19.80
2022-09-22T00:32:26.951Z,21.40
2022-09-22T00:35:32.817Z,18.70
2022-09-22T00:38:40.763Z,22.00
2022-09-22T00:41:48.442Z,22.00
2022-09-22T00:44:54.361Z,23.30
2022-09-22T00:48:00.262Z,21.30
2022-09-22T00:51:10.710Z,19.90
2022-09-22T00:54:20.344Z,22.00
2022-09-22T00:57:29.738Z,20.10
2022-09-22T01:00:36.004Z,21.80
2022-09-22T01:03:42.972Z,19.40
2022-09-22T01:06:49.178Z,20.30
2022-09-22T01:13:14.238Z,20.20
2022-09-22T01:16:32.866Z,20.10
2022-09-22T01:20:09.435Z,20.50
2022-09-22T01:23:40.369Z,21.00
2022-09-22T01:27:21.521Z,19.70
2022-09-22T01:30:31.182Z,19.60
2022-09-22T01:33:46.066Z,19.70
2022-09-22T01:36:58.446Z,20.60
2022-09-22T01:40:10.669Z,21.30
2022-09-22T01:43:23.396Z,20.90
2022-09-22T01:46:34.376Z,19.80
2022-09-22T01:49:45.409Z,22.50
2022-09-22T01:52:53.417Z,20.80
2022-09-22T01:56:03.001Z,21.40
2022-09-22T01:59:13.061Z,22.50
2022-09-22T02:02:25.220Z,18.50
2022-09-22T02:05:35.181Z,19.20
2022-09-22T02:08:46.954Z,23.00
2022-09-22T02:11:53.301Z,23.60
2022-09-22T02:14:59.498Z,22.20
2022-09-22T02:21:14.027Z,22.70
2022-09-22T02:24:35.158Z,23.40
2022-09-22T02:27:42.222Z,23.50
2022-09-22T02:31:10.920Z,23.10
2022-09-22T02:34:18.153Z,24.40
2022-09-22T02:37:30.893Z,22.70
2022-09-22T02:40:47.071Z,22.20
2022-09-22T02:43:58.802Z,21.30
2022-09-22T02:47:10.318Z,25.00
2022-09-22T02:50:20.007Z,23.50
2022-09-22T02:53:25.889Z,23.50
2022-09-22T02:56:32.054Z,24.20
2022-09-22T02:59:38.013Z,23.60
2022-09-22T03:02:43.910Z,22.20
2022-09-22T03:05:49.783Z,21.90
2022-09-22T03:08:55.646Z,23.70
2022-09-22T03:12:01.644Z,29.80
2022-09-22T03:15:09.681Z,33.30
2022-09-22T03:18:16.062Z,30.30
2022-09-22T03:21:21.953Z,21.90
2022-09-22T03:24:28.374Z,22.20
2022-09-22T03:27:34.266Z,22.50
2022-09-22T03:30:40.654Z,21.60
2022-09-22T03:33:50.604Z,21.90
2022-09-22T03:36:58.735Z,23.20
2022-09-22T03:40:05.937Z,22.20
2022-09-22T03:43:16.440Z,21.40
2022-09-22T03:46:22.734Z,20.10
2022-09-22T03:49:28.943Z,21.50
2022-09-22T03:52:34.927Z,20.80
2022-09-22T03:55:40.766Z,21.20
2022-09-22T03:58:46.690Z,21.10
2022-09-22T04:01:56.040Z,19.50
2022-09-22T04:05:03.922Z,21.50
2022-09-22T04:08:09.817Z,19.60
2022-09-22T04:11:15.719Z,19.70
2022-09-22T04:14:21.616Z,19.90
2022-09-22T04:17:27.494Z,18.20
2022-09-22T04:20:33.366Z,16.30
2022-09-22T04:23:39.751Z,19.00
2022-09-22T04:27:08.182Z,17.10
2022-09-22T04:30:14.198Z,17.30
2022-09-22T04:33:20.357Z,17.70
2022-09-22T04:39:30.502Z,18.50
2022-09-22T04:42:36.373Z,16.90
2022-09-22T04:45:45.269Z,18.00
2022-09-22T04:48:51.206Z,19.70
2022-09-22T04:51:57.309Z,18.50
2022-09-22T04:55:03.189Z,17.60
2022-09-22T04:58:10.314Z,17.80
2022-09-22T05:01:16.255Z,17.80
2022-09-22T05:04:22.141Z,17.00
2022-09-22T05:07:28.494Z,18.40
2022-09-22T05:13:41.945Z,19.00
2022-09-22T05:16:47.849Z,17.90
2022-09-22T05:19:56.017Z,17.80
2022-09-22T05:23:01.948Z,18.20
2022-09-22T05:26:08.011Z,21.70
2022-09-22T05:29:13.933Z,19.20
2022-09-22T05:32:19.778Z,19.30
2022-09-22T05:35:27.502Z,18.40
2022-09-22T05:38:33.356Z,18.50
2022-09-22T05:41:39.305Z,20.30
2022-09-22T05:44:45.173Z,18.80
2022-09-22T05:47:51.079Z,20.60
2022-09-22T05:50:56.954Z,18.50
2022-09-22T05:54:02.864Z,18.00
2022-09-22T05:57:08.745Z,19.60
2022-09-22T06:00:15.976Z,20.00
2022-09-22T06:03:21.829Z,18.10
2022-09-22T06:06:27.769Z,20.20
2022-09-22T06:09:33.958Z,20.70
2022-09-22T06:15:48.799Z,18.80
2022-09-22T06:18:54.652Z,19.80
2022-09-22T06:22:01.406Z,19.20
2022-09-22T06:25:09.313Z,21.30
2022-09-22T06:28:16.287Z,22.60
2022-09-22T06:31:22.222Z,21.10
2022-09-22T06:34:28.394Z,20.90
2022-09-22T06:37:36.075Z,20.00
2022-09-22T06:40:42.665Z,21.80
2022-09-22T06:43:50.891Z,21.50
2022-09-22T06:46:56.777Z,20.50
2022-09-22T06:50:05.701Z,21.40
2022-09-22T06:53:13.987Z,21.50
2022-09-22T06:56:20.426Z,22.00
2022-09-22T06:59:26.784Z,20.50
2022-09-22T07:02:32.636Z,21.20
2022-09-22T07:05:39.183Z,24.70
2022-09-22T07:08:46.016Z,23.50
2022-09-22T07:11:51.921Z,20.60
2022-09-22T07:14:58.233Z,24.60
2022-09-22T07:21:10.190Z,20.20
2022-09-22T07:24:16.102Z,17.80
2022-09-22T07:27:26.476Z,16.00
2022-09-22T07:30:32.354Z,20.60
2022-09-22T07:33:39.649Z,17.10
2022-09-22T07:36:45.532Z,13.90
2022-09-22T07:39:51.413Z,15.20
2022-09-22T07:42:57.308Z,16.10
2022-09-22T07:46:03.964Z,15.60
2022-09-22T07:49:09.861Z,15.20
2022-09-22T07:52:16.195Z,17.40
2022-09-22T07:58:28.307Z,16.40
2022-09-22T08:01:34.767Z,13.20
2022-09-22T08:04:41.222Z,14.10
2022-09-22T08:07:47.175Z,13.60
2022-09-22T08:10:53.084Z,13.00
2022-09-22T08:14:00.958Z,14.50
2022-09-22T08:17:13.059Z,13.30
2022-09-22T08:20:20.249Z,12.40
2022-09-22T08:23:26.130Z,11.90
2022-09-22T08:26:31.990Z,14.70
2022-09-22T08:29:37.881Z,11.40
2022-09-22T08:32:43.851Z,11.30
2022-09-22T08:35:57.570Z,11.50
2022-09-22T08:39:04.238Z,11.60
2022-09-22T08:42:18.531Z,10.90
2022-09-22T08:45:31.175Z,12.10
2022-09-22T08:48:55.030Z,11.40
2022-09-22T08:52:06.512Z,12.10
2022-09-22T08:55:21.134Z,11.30
2022-09-22T08:58:42.969Z,13.10
2022-09-22T09:02:02.573Z,11.70
2022-09-22T09:05:33.098Z,14.30
2022-09-22T09:09:05.362Z,18.10
2022-09-22T09:12:29.934Z,16.00
2022-09-22T09:15:55.922Z,14.60
2022-09-22T09:19:07.911Z,12.10
2022-09-22T09:22:25.118Z,11.60
2022-09-22T09:25:38.435Z,11.40
2022-09-22T09:28:49.421Z,14.80
2022-09-22T09:31:58.665Z,10.30
2022-09-22T09:35:06.479Z,18.90
2022-09-22T09:38:16.182Z,14.70
2022-09-22T09:41:24.917Z,11.50
2022-09-22T09:44:33.416Z,12.40
2022-09-22T09:48:02.145Z,11.30
2022-09-22T09:51:11.906Z,10.70
2022-09-22T09:54:19.265Z,11.60
2022-09-22T09:57:28.649Z,11.10
2022-09-22T10:00:36.657Z,11.40
2022-09-22T10:03:54.766Z,9.50
2022-09-22T10:07:14.615Z,10.40
2022-09-22T10:10:35.902Z,10.40
2022-09-22T10:13:43.393Z,11.00
2022-09-22T10:16:54.868Z,11.80
2022-09-22T10:20:23.071Z,12.90
2022-09-22T10:23:32.746Z,7.90
2022-09-22T10:26:39.016Z,11.60
2022-09-22T10:29:44.949Z,10.30
2022-09-22T10:33:07.526Z,10.70
2022-09-22T10:36:14.188Z,12.00
2022-09-22T10:39:21.443Z,11.30
2022-09-22T10:42:35.023Z,10.00
2022-09-22T10:45:55.358Z,10.00
2022-09-22T10:49:12.630Z,15.10
2022-09-22T10:52:26.426Z,14.70
2022-09-22T10:55:37.090Z,27.10
2022-09-22T10:59:11.920Z,9.30
2022-09-22T11:02:35.890Z,9.50
2022-09-22T11:06:08.015Z,32.10
2022-09-22T11:09:46.901Z,12.00
2022-09-22T11:13:01.881Z,11.00
2022-09-22T11:16:34.591Z,9.80
2022-09-22T11:19:58.825Z,9.50
2022-09-22T11:23:30.381Z,10.70
2022-09-22T11:26:47.395Z,5.80
2022-09-22T11:30:20.805Z,8.60
2022-09-22T11:33:49.709Z,5.80
2022-09-22T11:36:58.676Z,23.10
2022-09-22T11:40:20.749Z,8.80
2022-09-22T11:43:44.485Z,12.00
2022-09-22T11:47:08.205Z,8.90
2022-09-22T11:50:50.312Z,33.10
2022-09-22T11:54:08.677Z,13.00
2022-09-22T11:57:19.413Z,6.40
2022-09-22T12:00:25.653Z,4.10
2022-09-22T12:03:37.584Z,9.50
2022-09-22T12:06:50.596Z,10.30
2022-09-22T12:10:01.861Z,5.50
2022-09-22T12:13:13.205Z,5.20
2022-09-22T12:16:24.489Z,4.70
2022-09-22T12:19:39.990Z,4.60
2022-09-22T12:23:14.545Z,7.10
2022-09-22T12:26:31.303Z,3.60
2022-09-22T12:29:38.906Z,6.70
2022-09-22T12:32:46.330Z,6.30
2022-09-22T12:35:58.067Z,14.70
2022-09-22T12:39:17.420Z,14.30
2022-09-22T12:42:28.427Z,10.80
2022-09-22T12:45:37.233Z,9.90
2022-09-22T12:48:47.518Z,11.00
2022-09-22T12:51:53.486Z,8.50
2022-09-22T12:55:19.313Z,10.10
2022-09-22T12:58:45.035Z,7.50
2022-09-22T13:05:46.368Z,4.90
2022-09-22T13:09:21.646Z,6.50
2022-09-22T13:12:29.298Z,4.40
2022-09-22T13:15:59.708Z,3.30
2022-09-22T13:19:09.967Z,3.90
2022-09-22T13:22:20.802Z,3.90
2022-09-22T13:25:29.190Z,4.60
2022-09-22T13:28:35.085Z,6.00
2022-09-22T13:31:45.926Z,7.30
2022-09-22T13:34:51.770Z,9.70
2022-09-22T13:38:00.103Z,7.00
2022-09-22T13:41:12.272Z,7.10
2022-09-22T13:44:26.069Z,11.70
2022-09-22T13:47:32.614Z,11.20
2022-09-22T13:50:48.422Z,9.40
2022-09-22T13:57:00.756Z,10.00
2022-09-22T14:00:09.938Z,6.20
2022-09-22T14:03:21.784Z,6.60
2022-09-22T14:06:32.050Z,7.00
2022-09-22T14:09:40.313Z,7.30
2022-09-22T14:12:46.177Z,7.80
2022-09-22T14:15:52.086Z,9.60
2022-09-22T14:19:04.691Z,8.40
2022-09-22T14:22:19.095Z,6.30
2022-09-22T14:25:25.470Z,7.10
2022-09-22T14:28:36.849Z,5.70
2022-09-22T14:31:45.592Z,5.60
2022-09-22T14:34:54.242Z,7.10
2022-09-22T14:38:12.970Z,12.30
2022-09-22T14:41:27.617Z,8.60
2022-09-22T14:44:44.900Z,10.60
2022-09-22T14:48:21.485Z,9.70
2022-09-22T14:51:28.735Z,5.60
2022-09-22T14:54:36.193Z,7.10
2022-09-22T14:57:48.762Z,5.60
2022-09-22T15:01:15.463Z,6.50
2022-09-22T15:04:24.183Z,6.90
2022-09-22T15:07:32.098Z,11.50
2022-09-22T15:10:39.892Z,7.30
2022-09-22T15:13:47.666Z,26.80
2022-09-22T15:17:13.569Z,9.10
2022-09-22T15:20:19.694Z,7.80
2022-09-22T15:26:34.251Z,9.20
2022-09-22T15:29:40.270Z,10.50
2022-09-22T15:32:47.959Z,14.40
2022-09-22T15:35:57.814Z,9.90
2022-09-22T15:39:08.192Z,9.30
2022-09-22T15:42:14.261Z,14.10
2022-09-22T15:45:23.095Z,9.10
2022-09-22T15:48:34.046Z,9.40
2022-09-22T15:51:40.238Z,9.70
2022-09-22T15:58:07.408Z,12.70
2022-09-22T16:01:14.662Z,11.10
2022-09-22T16:04:20.950Z,9.70
2022-09-22T16:07:26.969Z,13.60
2022-09-22T16:10:33.199Z,12.70
2022-09-22T16:16:44.078Z,12.10
2022-09-22T16:19:50.002Z,10.50
2022-09-22T16:22:55.903Z,15.40
2022-09-22T16:26:01.910Z,34.70
2022-09-22T16:29:08.910Z,42.70
2022-09-22T16:32:14.792Z,13.70
2022-09-22T16:35:20.718Z,11.50
2022-09-22T16:38:26.642Z,12.40
2022-09-22T16:41:33.713Z,13.70
2022-09-22T16:44:39.705Z,11.20
2022-09-22T16:47:45.734Z,15.20
2022-09-22T16:50:54.678Z,13.70
2022-09-22T16:54:00.750Z,16.00
2022-09-22T16:57:07.027Z,14.20
2022-09-22T17:03:19.114Z,17.10
2022-09-22T17:06:26.545Z,19.90
2022-09-22T17:09:32.952Z,17.00
2022-09-22T17:12:38.845Z,16.70
2022-09-22T17:15:44.861Z,15.70
2022-09-22T17:18:53.616Z,15.30
2022-09-22T17:21:59.863Z,14.00
2022-09-22T17:28:09.929Z,16.50
2022-09-22T17:31:16.683Z,14.70
2022-09-22T17:34:22.894Z,14.70
2022-09-22T17:40:33.055Z,16.70
2022-09-22T17:43:40.723Z,17.90
2022-09-22T17:47:00.414Z,17.90
2022-09-22T17:50:36.085Z,17.60
2022-09-22T17:53:59.698Z,17.40
2022-09-22T17:57:06.555Z,15.30
2022-09-22T18:00:15.373Z,15.10
2022-09-22T18:03:21.234Z,14.50
2022-09-22T18:06:27.177Z,14.40
2022-09-22T18:09:33.124Z,13.90
2022-09-22T18:12:39.626Z,16.00
2022-09-22T18:15:45.817Z,15.50
2022-09-22T18:18:52.025Z,15.00
2022-09-22T18:21:58.201Z,19.00
2022-09-22T18:25:04.158Z,19.90
2022-09-22T18:28:10.027Z,18.70
2022-09-22T18:31:17.504Z,17.20
2022-09-22T18:34:23.558Z,19.90
2022-09-22T18:37:29.705Z,18.00
2022-09-22T18:43:42.047Z,19.50
2022-09-22T18:46:48.640Z,21.70
2022-09-22T18:49:54.858Z,19.60
2022-09-22T18:56:12.931Z,19.60
2022-09-22T18:59:20.769Z,20.90
2022-09-22T19:02:26.882Z,16.80
2022-09-22T19:08:37.071Z,18.20
2022-09-22T19:11:43.417Z,18.10
2022-09-22T19:14:50.208Z,17.30
2022-09-22T19:17:56.070Z,17.90
2022-09-22T19:21:04.090Z,16.70
2022-09-22T19:24:10.672Z,19.30
2022-09-22T19:27:19.206Z,22.10
2022-09-22T19:30:28.583Z,21.80
2022-09-22T19:33:37.219Z,21.30
2022-09-22T19:36:43.690Z,21.00
2022-09-22T19:39:50.458Z,18.30
2022-09-22T19:42:57.000Z,20.00
2022-09-22T19:46:03.488Z,14.50
2022-09-22T19:49:09.429Z,16.90
2022-09-22T19:52:15.328Z,16.10
2022-09-22T19:55:21.691Z,15.30
2022-09-22T19:58:27.942Z,13.60
2022-09-22T20:04:39.299Z,18.70
2022-09-22T20:07:45.524Z,13.70
2022-09-22T20:14:25.559Z,13.30
2022-09-22T20:17:31.861Z,18.10
2022-09-22T20:20:38.210Z,18.40
2022-09-22T20:23:44.099Z,13.00
2022-09-22T20:26:50.546Z,14.30
2022-09-22T20:29:57.854Z,14.50
2022-09-22T20:33:04.019Z,13.20
2022-09-22T20:39:19.398Z,16.50
2022-09-22T20:42:25.753Z,15.40
2022-09-22T20:45:31.710Z,13.60
2022-09-22T20:48:37.659Z,15.10
2022-09-22T20:51:43.833Z,12.70
2022-09-22T20:54:49.768Z,12.60
2022-09-22T20:57:55.947Z,11.90
2022-09-22T21:01:03.054Z,12.10
2022-09-22T21:04:11.864Z,11.60
2022-09-22T21:07:21.745Z,10.90
2022-09-22T21:13:44.211Z,11.80
2022-09-22T21:19:58.438Z,12.70
2022-09-22T21:23:04.367Z,11.30
2022-09-22T21:26:10.693Z,11.50
2022-09-22T21:32:20.806Z,13.70
2022-09-22T21:35:26.712Z,15.70
2022-09-22T21:38:33.022Z,34.60
2022-09-22T21:44:43.353Z,15.80
2022-09-22T21:47:52.559Z,14.40
2022-09-22T21:51:03.386Z,13.80
2022-09-22T21:54:12.300Z,14.00
2022-09-22T21:57:18.130Z,14.10
2022-09-22T22:00:48.117Z,15.30
2022-09-22T22:03:52.401Z,16.90
2022-09-22T22:06:59.598Z,14.50
2022-09-22T22:10:05.825Z,13.80
2022-09-22T22:13:13.350Z,13.30
2022-09-22T22:16:20.151Z,14.40
2022-09-22T22:19:27.170Z,15.50
2022-09-22T22:22:33.387Z,16.10
2022-09-22T22:25:40.186Z,13.90
2022-09-22T22:28:47.003Z,13.40
2022-09-22T22:31:53.667Z,15.70
2022-09-22T22:34:59.559Z,12.90
2022-09-22T22:38:05.433Z,13.80
2022-09-22T22:41:13.732Z,13.40
2022-09-22T22:44:19.658Z,13.00
2022-09-22T22:47:25.732Z,13.40
2022-09-22T22:50:31.950Z,12.90
2022-09-22T22:53:38.161Z,15.00
2022-09-22T22:59:53.726Z,12.50
2022-09-22T23:02:59.630Z,12.60
2022-09-22T23:06:05.634Z,12.50
2022-09-22T23:09:15.251Z,12.50
2022-09-22T23:12:21.119Z,12.20
2022-09-22T23:15:27.286Z,11.50
2022-09-22T23:18:35.218Z,12.80
2022-09-22T23:21:40.644Z,12.10
2022-09-22T23:24:46.031Z,13.60
2022-09-22T23:27:51.851Z,12.00
2022-09-22T23:31:03.063Z,11.90
2022-09-22T23:34:08.503Z,12.80
2022-09-22T23:37:13.884Z,12.60
2022-09-22T23:40:19.475Z,12.10
2022-09-22T23:43:26.117Z,12.90
2022-09-22T23:46:31.951Z,11.30
2022-09-22T23:49:37.424Z,13.20
2022-09-22T23:52:42.785Z,10.70
2022-09-22T23:55:48.145Z,13.30
2022-09-22T23:58:54.264Z,11.10
